M I D A S
Marine Information and Data Acquisition System
Tripno 878 of the Zeeleeuw from 2005-04-06 07:09:20 to 2005-04-06 10:59:48
Back to CruiseResearch ActivitiesStationsMapUnderway DataData graphs

EquipmentUnitsComment
TimeDGPSUTC
LatitudeDGPSDM.mWGS84
LongitudeDGPSDM.mWGS84
TemperatureSBE03/SBE38deg celciusITS90
ConductivitySBE21S/mITS90
SalinitySBE21 Practical Salinity Units
ChlorophylAChelsea fluorimeterg/lCalibrated in Aceton
Missing or incorrect values are displayed as -999
Sea surface data collected by the RV Zeeleeuw from 2005-04-06 07:07:31 to 2005-04-06 11:13:34
Time Latitude Longitude Temperature Conductivity Salinity ChlorophylA
2005-04-06 07:08:37 51°13.619 2°56.021 13.3015 0.066384 0.405386 -0.882377
2005-04-06 07:09:37 51°13.656 2°55.913 13.3006 0.066384 0.405469 -0.882377
2005-04-06 07:10:37 51°13.675 2°55.798 13.324 0.066384 0.405537 -0.882377
2005-04-06 07:11:36 51°13.687 2°55.792 13.276 0.066384 0.405635 -0.848668
2005-04-06 07:12:37 51°13.7 2°55.798 13.2661 0.066384 0.405613 -0.916087
2005-04-06 07:13:37 51°13.717 2°55.781 13.3462 0.066384 0.405651 -0.882377
2005-04-06 07:14:37 51°13.774 2°55.682 13.2067 0.066384 0.405726 -0.882377
2005-04-06 07:15:37 51°13.874 2°55.593 13.2474 0.066384 0.405779 -0.882377
2005-04-06 07:16:36 51°13.995 2°55.51 13.2838 0.06628 0.405197 -0.882377
2005-04-06 07:17:37 51°14.13 2°55.411 11.1348 0.06628 0.405273 -0.882377
2005-04-06 07:18:37 51°14.259 2°55.266 8.858 3.009897 27.052856 10.915913
2005-04-06 07:19:37 51°14.371 2°55.052 8.6608 2.911911 26.684784 7.915777
2005-04-06 07:20:37 51°14.436 2°54.772 8.4692 2.92328 26.954027 7.477554
2005-04-06 07:21:37 51°14.457 2°54.604 8.3959 3.066546 28.579173 7.544973
2005-04-06 07:22:37 51°14.462 2°54.508 8.322 3.079812 28.777313 7.17417
2005-04-06 07:23:37 51°14.463 2°54.44 8.2791 3.101079 29.053787 6.837076
2005-04-06 07:24:37 51°14.465 2°54.39 8.2607 3.087288 28.93832 6.938204
2005-04-06 07:25:37 51°14.468 2°54.351 8.2388 3.101185 29.102952 6.904494
2005-04-06 07:26:36 51°14.47 2°54.322 8.2292 3.107608 29.181309 6.971913
2005-04-06 07:27:37 51°14.472 2°54.298 8.2253 3.106871 29.182631 6.769657
2005-04-06 07:28:36 51°14.475 2°54.281 8.2164 3.110135 29.226203 7.17417
2005-04-06 07:29:37 51°14.48 2°54.267 8.2107 3.114767 29.279877 7.039332
2005-04-06 07:30:37 51°14.485 2°54.213 8.2067 3.080761 28.932908 6.769657
2005-04-06 07:31:36 51°14.482 2°54.084 8.2006 3.105713 29.193399 6.870785
2005-04-06 07:32:37 51°14.486 2°53.933 8.1682 3.100975 29.159365 7.275298
2005-04-06 07:33:37 51°14.4 2°53.75 8.142 3.106977 29.251554 7.74723
2005-04-06 07:34:36 51°14.28 2°53.513 8.1244 3.087394 29.065762 7.646101
2005-04-06 07:35:37 51°14.169 2°53.243 8.1008 3.09508 29.158892 7.646101
2005-04-06 07:36:37 51°14.06 2°52.97 8.0921 3.107504 29.305696 7.74723
2005-04-06 07:37:36 51°13.954 2°52.696 8.0917 3.12435 29.479987 7.612392
2005-04-06 07:38:37 51°13.849 2°52.413 8.1023 3.121507 29.45313 8.050614
2005-04-06 07:39:37 51°13.743 2°52.123 8.1173 3.109083 29.319374 7.780939
2005-04-06 07:40:37 51°13.628 2°51.81 8.1388 3.13551 29.582397 8.353999
2005-04-06 07:41:37 51°13.51 2°51.49 8.1569 3.137826 29.58689 8.320289
2005-04-06 07:42:35 51°13.399 2°51.186 8.1728 3.135089 29.548528 8.084324
2005-04-06 07:43:37 51°13.279 2°50.86 8.1905 3.139405 29.572478 8.387708
2005-04-06 07:44:37 51°13.165 2°50.55 8.2061 3.150145 29.67313 8.320289
2005-04-06 07:45:36 51°13.052 2°50.238 8.2101 3.163412 29.801509 8.724802
2005-04-06 07:46:36 51°12.933 2°49.929 8.214 3.1572 29.736071 8.82593
2005-04-06 07:47:37 51°12.811 2°49.618 8.2288 3.151514 29.670517 8.994477
2005-04-06 07:48:37 51°12.691 2°49.31 8.2359 3.158884 29.740238 8.893349
2005-04-06 07:49:36 51°12.573 2°49.004 8.2447 3.164465 29.7899 9.230443
2005-04-06 07:50:37 51°12.453 2°48.694 8.2515 3.169519 29.831948 10.039469
2005-04-06 07:51:37 51°12.333 2°48.387 8.2664 3.170045 29.82755 10.443982
2005-04-06 07:52:37 51°12.214 2°48.081 8.2679 3.167939 29.799286 10.747366
2005-04-06 07:53:36 51°12.096 2°47.779 8.2725 3.165412 29.770878 10.747366
2005-04-06 07:54:37 51°11.975 2°47.473 8.2799 3.172572 29.843269 11.08446
2005-04-06 07:55:37 51°11.857 2°47.172 8.2943 3.184787 29.962629 11.253007
2005-04-06 07:56:36 51°11.747 2°46.872 8.2994 3.187103 29.971868 11.960905
2005-04-06 07:57:37 51°11.65 2°46.55 8.2985 3.202161 30.131464 11.65752
2005-04-06 07:58:37 51°11.554 2°46.233 8.3051 3.205636 30.164093 11.050751
2005-04-06 07:59:37 51°11.456 2°45.92 8.3032 3.223011 30.343688 11.320426
2005-04-06 08:00:37 51°11.359 2°45.609 8.3072 3.230172 30.416178 11.724939
2005-04-06 08:01:36 51°11.265 2°45.3 8.3191 3.221747 30.32407 11.927195
2005-04-06 08:02:37 51°11.169 2°44.988 8.3257 3.238596 30.492497 11.994614
2005-04-06 08:03:37 51°11.073 2°44.678 8.3378 3.230277 30.397887 12.871059
2005-04-06 08:04:37 51°10.988 2°44.361 8.345 3.254077 30.636579 13.545247
2005-04-06 08:05:37 51°10.906 2°44.041 8.3549 3.261027 30.70254 12.938477
2005-04-06 08:06:36 51°10.824 2°43.727 8.3732 3.27061 30.789418 13.309281
2005-04-06 08:07:37 51°10.741 2°43.409 8.3813 3.270505 30.77598 13.073315
2005-04-06 08:08:37 51°10.659 2°43.095 8.3923 3.277982 30.846662 12.904768
2005-04-06 08:09:37 51°10.578 2°42.782 8.406 3.294095 31.002278 12.76993
2005-04-06 08:10:35 51°10.499 2°42.481 8.4123 3.293779 30.992411 12.668802
2005-04-06 08:11:37 51°10.414 2°42.161 8.4148 3.31379 31.195254 12.668802
2005-04-06 08:12:35 51°10.336 2°41.863 8.4179 3.331379 31.37736 12.533965
2005-04-06 08:13:36 51°10.254 2°41.546 8.4213 3.334012 31.401896 13.3767
2005-04-06 08:14:36 51°10.175 2°41.239 8.4251 3.339805 31.459426 13.039606
2005-04-06 08:15:37 51°10.094 2°40.928 8.4222 3.348547 31.549254 12.297999
2005-04-06 08:16:37 51°10.013 2°40.621 8.4184 3.34644 31.527248 11.488973
2005-04-06 08:17:36 51°9.932 2°40.317 8.4045 3.375827 31.840422 10.5114
2005-04-06 08:18:37 51°9.849 2°40.009 8.3836 3.396789 32.074932 9.500118
2005-04-06 08:19:37 51°9.768 2°39.706 8.3611 3.413853 32.271278 8.387708
2005-04-06 08:20:37 51°9.686 2°39.405 8.3405 3.427653 32.436746 7.544973
2005-04-06 08:21:37 51°9.604 2°39.104 8.3155 3.417541 32.348874 7.376426
2005-04-06 08:22:36 51°9.523 2°38.806 8.2978 3.444297 32.652493 7.241589
2005-04-06 08:23:37 51°9.439 2°38.506 8.2809 3.435238 32.574101 7.915777
2005-04-06 08:24:37 51°9.357 2°38.21 8.2733 3.444403 32.680642 8.151742
2005-04-06 08:25:37 51°9.293 2°37.946 8.2641 3.441559 32.657637 7.915777
2005-04-06 08:26:37 51°9.237 2°37.797 8.2609 3.449249 32.747191 7.443845
2005-04-06 08:27:37 51°9.185 2°37.683 8.2615 3.436292 32.614504 7.241589
2005-04-06 08:28:37 51°9.142 2°37.545 8.2591 3.450513 32.764395 6.466272
2005-04-06 08:29:37 51°9.108 2°37.379 8.2603 3.439557 32.648142 6.971913
2005-04-06 08:30:35 51°9.095 2°37.223 8.2537 3.449881 32.760058 6.971913
2005-04-06 08:31:37 51°9.073 2°37.163 8.2593 3.449144 32.75461 6.904494
2005-04-06 08:32:37 51°9.057 2°37.164 8.2551 3.429866 32.549891 7.14046
2005-04-06 08:33:35 51°9.047 2°37.156 8.2545 3.452936 32.793047 7.814648
2005-04-06 08:34:37 51°9.052 2°37.13 8.2545 3.45262 32.792044 7.848358
2005-04-06 08:35:37 51°9.075 2°37.102 8.2542 3.45736 32.842043 7.342717
2005-04-06 08:36:37 51°9.112 2°37.082 8.253 3.455359 32.821709 7.207879
2005-04-06 08:37:37 51°9.159 2°37.076 8.2513 3.450408 32.771043 6.938204
2005-04-06 08:38:37 51°9.214 2°37.095 8.2478 3.451567 32.787147 7.275298
2005-04-06 08:39:35 51°9.263 2°37.147 8.2429 3.456202 32.837597 7.679811
2005-04-06 08:40:37 51°9.306 2°37.228 8.2442 3.469791 32.984141 8.016905
2005-04-06 08:41:37 51°9.304 2°37.347 8.247 3.470107 32.982789 7.71352
2005-04-06 08:42:37 51°9.246 2°37.383 8.243 3.469265 32.974674 7.477554
2005-04-06 08:43:37 51°9.21 2°37.286 8.239 3.468422 32.976714 6.837076
2005-04-06 08:44:37 51°9.167 2°37.182 8.2433 3.469265 32.980142 6.870785
2005-04-06 08:45:37 51°9.172 2°37.167 8.2434 3.469897 32.981346 6.837076
2005-04-06 08:46:37 51°9.193 2°37.184 8.2427 3.470529 32.991145 8.016905
2005-04-06 08:47:37 51°9.212 2°37.205 8.2478 3.470213 32.986245 8.320289
2005-04-06 08:48:37 51°9.229 2°37.23 8.2461 3.470529 32.986456 9.095606
2005-04-06 08:49:37 51°9.245 2°37.259 8.2545 3.470423 32.984563 8.82593
2005-04-06 08:50:37 51°9.26 2°37.289 8.2637 3.471266 32.983303 8.185452
2005-04-06 08:51:37 51°9.276 2°37.32 8.269 3.471687 32.981502 8.252871
2005-04-06 08:52:35 51°9.292 2°37.35 8.2716 3.471898 32.980602 8.589965
2005-04-06 08:53:36 51°9.308 2°37.383 8.2686 3.471898 32.975138 8.353999
2005-04-06 08:54:37 51°9.325 2°37.417 8.2635 3.471793 32.982614 8.084324
2005-04-06 08:55:37 51°9.343 2°37.451 8.2606 3.471266 32.980179 8.151742
2005-04-06 08:56:36 51°9.362 2°37.486 8.259 3.470213 32.971405 7.780939
2005-04-06 08:57:37 51°9.383 2°37.524 8.251 3.470318 32.97564 8.050614
2005-04-06 08:58:37 51°9.402 2°37.56 8.2545 3.470318 32.976421 8.522546
2005-04-06 08:59:37 51°9.423 2°37.597 8.2513 3.470213 32.977652 8.252871
2005-04-06 09:00:37 51°9.443 2°37.632 8.2487 3.469791 32.974766 7.814648
2005-04-06 09:01:37 51°9.463 2°37.668 8.2479 3.469265 32.97233 8.252871
2005-04-06 09:02:37 51°9.483 2°37.704 8.2563 3.469265 32.970768 7.578683
2005-04-06 09:03:37 51°9.504 2°37.741 8.2593 3.469475 32.964404 8.488836
2005-04-06 09:04:37 51°9.525 2°37.777 8.2603 3.470002 32.96684 8.320289
2005-04-06 09:05:37 51°9.546 2°37.815 8.2577 3.46958 32.963954 8.118033
2005-04-06 09:06:38 51°9.569 2°37.845 8.2543 3.469264 32.962961 8.623674
2005-04-06 09:07:37 51°9.577 2°37.787 8.2476 3.468738 32.965209 8.82593
2005-04-06 09:08:37 51°9.559 2°37.732 8.2444 3.468527 32.964547 8.353999
2005-04-06 09:09:35 51°9.534 2°37.688 8.2402 3.47232 33.009272 8.623674
2005-04-06 09:10:37 51°9.514 2°37.639 8.2411 3.467368 32.955438 8.455127
2005-04-06 09:11:37 51°9.508 2°37.578 8.2493 3.466842 32.951439 8.792221
2005-04-06 09:12:37 51°9.508 2°37.507 8.2493 3.467368 32.949974 8.758512
2005-04-06 09:13:37 51°9.517 2°37.434 8.253 3.46779 32.95208 8.994477
2005-04-06 09:14:35 51°9.52 2°37.369 8.2619 3.467052 32.943518 8.724802
2005-04-06 09:15:37 51°9.498 2°37.318 8.269 3.467368 32.935153 9.466409
2005-04-06 09:16:37 51°9.475 2°37.266 8.2734 3.467684 32.93303 9.230443
2005-04-06 09:17:37 51°9.452 2°37.212 8.2796 3.468211 32.934688 8.320289
2005-04-06 09:18:37 51°9.429 2°37.157 8.2843 3.467263 32.919236 7.882067
2005-04-06 09:19:37 51°9.403 2°37.107 8.2899 3.467473 32.914448 8.792221
2005-04-06 09:20:37 51°9.376 2°37.056 8.2951 3.467262 32.91067 8.556255
2005-04-06 09:21:37 51°9.35 2°37.005 8.2973 3.467262 32.906 8.927059
2005-04-06 09:22:37 51°9.325 2°36.955 8.298 3.475374 32.989952 9.129315
2005-04-06 09:23:37 51°9.298 2°36.904 8.3007 3.475163 32.98539 9.365281
2005-04-06 09:24:37 51°9.271 2°36.852 8.3019 3.475163 32.98383 9.601247
2005-04-06 09:25:37 51°9.244 2°36.8 8.3011 3.475585 32.987492 10.005759
2005-04-06 09:26:37 51°9.219 2°36.746 8.311 3.476217 32.988695 10.410272
2005-04-06 09:27:37 51°9.196 2°36.69 8.322 3.477481 32.99344 10.241725
2005-04-06 09:28:37 51°9.172 2°36.635 8.3337 3.478745 32.998964 10.882204
2005-04-06 09:29:37 51°9.149 2°36.581 8.3541 3.481905 33.017442 11.994614
2005-04-06 09:30:37 51°9.125 2°36.526 8.3651 3.483696 33.022269 11.185589
2005-04-06 09:31:37 51°9.108 2°36.465 8.3784 3.487172 33.047175 11.724939
2005-04-06 09:32:37 51°9.102 2°36.385 8.3897 3.488542 33.053013 11.253007
2005-04-06 09:33:37 51°9.114 2°36.303 8.3935 3.492966 33.087099 10.747366
2005-04-06 09:34:35 51°9.137 2°36.23 8.3918 3.495916 33.11658 10.578819
2005-04-06 09:35:37 51°9.172 2°36.165 8.39 3.496759 33.127794 10.443982
2005-04-06 09:36:37 51°9.285 2°36.181 8.3684 3.496232 33.125374 11.994614
2005-04-06 09:37:37 51°9.354 2°36.3 8.3577 3.495073 33.129586 10.915913
2005-04-06 09:38:37 51°9.394 2°36.427 8.3375 3.490438 33.097178 10.5114
2005-04-06 09:39:37 51°9.424 2°36.551 8.3303 3.486646 33.070506 10.679947
2005-04-06 09:40:37 51°9.45 2°36.673 8.3299 3.485066 33.058542 10.949623
2005-04-06 09:41:37 51°9.471 2°36.781 8.3299 3.483907 33.047112 10.5114
2005-04-06 09:42:37 51°9.49 2°36.871 8.3323 3.484434 33.048758 11.08446
2005-04-06 09:43:37 51°9.511 2°36.948 8.3385 3.483907 33.042428 10.679947
2005-04-06 09:44:37 51°9.531 2°37.014 8.3329 3.483801 33.038977 11.354136
2005-04-06 09:45:37 51°9.553 2°37.072 8.3338 3.482643 33.02911 11.421554
2005-04-06 09:46:35 51°9.574 2°37.126 8.3338 3.482011 33.020891 11.387845
2005-04-06 09:47:37 51°9.596 2°37.179 8.3334 3.482327 33.025001 11.859777
2005-04-06 09:48:37 51°9.62 2°37.23 8.3336 3.482011 33.020891 11.11817
2005-04-06 09:49:37 51°9.644 2°37.28 8.3304 3.481694 33.019122 11.488973
2005-04-06 09:50:37 51°9.667 2°37.331 8.3307 3.48043 33.008924 11.556392
2005-04-06 09:51:37 51°9.689 2°37.383 8.3298 3.477691 32.979292 12.331708
2005-04-06 09:52:37 51°9.711 2°37.44 8.3265 3.479482 32.999716 11.792358
2005-04-06 09:53:37 51°9.733 2°37.497 8.3213 3.478745 32.995065 11.69123
2005-04-06 09:54:38 51°9.755 2°37.558 8.3112 3.477481 32.989542 12.028324
2005-04-06 09:55:37 51°9.777 2°37.617 8.3077 3.478113 33.002442 11.354136
2005-04-06 09:56:37 51°9.798 2°37.676 8.3062 3.478218 33.005892 11.421554
2005-04-06 09:57:37 51°9.821 2°37.736 8.3018 3.477902 33.003342 11.623811
2005-04-06 09:58:37 51°9.844 2°37.801 8.2999 3.477902 33.007243 11.185589
2005-04-06 09:59:37 51°9.866 2°37.869 8.2978 3.477481 33.002801 11.320426
2005-04-06 10:00:37 51°9.886 2°37.941 8.2935 3.47727 33.006043 11.455264
2005-04-06 10:01:37 51°9.907 2°38.017 8.2874 3.47727 33.009165 12.264289
2005-04-06 10:02:37 51°9.927 2°38.094 8.288 3.476954 33.008174 10.410272
2005-04-06 10:03:37 51°9.945 2°38.17 8.2876 3.476217 33.00274 10.578819
2005-04-06 10:04:37 51°9.963 2°38.247 8.2805 3.476533 33.008415 10.376563
2005-04-06 10:05:37 51°9.983 2°38.325 8.2809 3.476744 33.013761 11.050751
2005-04-06 10:06:37 51°10.004 2°38.413 8.2825 3.476533 33.011539 10.983332
2005-04-06 10:07:37 51°10.023 2°38.528 8.2822 3.476112 33.005533 10.106888
2005-04-06 10:08:37 51°10.046 2°38.658 8.2881 3.47569 33.00187 10.174306
2005-04-06 10:09:37 51°10.072 2°38.794 8.2872 3.475585 32.995295 11.387845
2005-04-06 10:10:37 51°10.088 2°38.936 8.2843 3.475374 32.993853 10.140597
2005-04-06 10:11:37 51°10.1 2°39.049 8.2846 3.475796 33.0022 10.477691
2005-04-06 10:12:37 51°10.111 2°39.161 8.2846 3.47569 32.998747 10.713657
2005-04-06 10:13:37 51°10.107 2°39.381 8.2918 3.475058 32.989741 10.443982
2005-04-06 10:14:37 51°10.107 2°39.71 8.2931 3.474321 32.975726 11.286717
2005-04-06 10:15:37 51°10.121 2°40.061 8.2806 3.473794 32.969393 11.826067
2005-04-06 10:16:37 51°10.136 2°40.333 8.2601 3.473162 32.98379 12.196871
2005-04-06 10:17:37 51°10.133 2°40.496 8.2523 3.471793 32.984956 12.365418
2005-04-06 10:18:37 51°10.123 2°40.623 8.2471 3.471582 32.987419 11.151879
2005-04-06 10:19:37 51°10.127 2°40.886 8.2503 3.471161 32.985315 12.331708
2005-04-06 10:20:37 51°10.169 2°41.27 8.2682 3.470002 32.973866 13.005896
2005-04-06 10:21:37 51°10.256 2°41.654 8.2687 3.46484 32.896024 11.556392
2005-04-06 10:22:37 51°10.344 2°42.03 8.286 3.462311 32.866257 12.365418
2005-04-06 10:23:37 51°10.432 2°42.404 8.2927 3.459362 32.82274 11.960905
2005-04-06 10:24:37 51°10.521 2°42.787 8.3008 3.458308 32.803883 11.994614
2005-04-06 10:25:37 51°10.608 2°43.164 8.3123 3.456728 32.774841 12.466546
2005-04-06 10:26:37 51°10.677 2°43.551 8.3382 3.454094 32.733965 12.80364
2005-04-06 10:27:37 51°10.779 2°43.916 8.3606 3.447036 32.630418 12.466546
2005-04-06 10:28:37 51°10.894 2°44.275 8.3731 3.440609 32.545997 11.556392
2005-04-06 10:29:37 51°11.015 2°44.627 8.3921 3.434394 32.469253 12.80364
2005-04-06 10:30:37 51°11.145 2°44.981 8.4345 3.427336 32.354775 13.646375
2005-04-06 10:31:37 51°11.273 2°45.329 8.4114 3.425545 32.354292 13.174443
2005-04-06 10:32:37 51°11.396 2°45.679 8.4085 3.43155 32.427176 14.017178
2005-04-06 10:33:37 51°11.522 2°46.032 8.4254 3.441241 32.52119 15.163298
2005-04-06 10:34:37 51°11.648 2°46.387 8.438 3.430075 32.388049 15.432973
2005-04-06 10:35:37 51°11.776 2°46.74 8.4288 3.419225 32.266005 16.039742
2005-04-06 10:36:37 51°11.902 2°47.092 8.4305 3.41006 32.173076 16.039742
2005-04-06 10:37:37 51°12.027 2°47.446 8.4283 3.400054 32.072861 15.702648
2005-04-06 10:38:37 51°12.157 2°47.802 8.4229 3.385939 31.928185 17.185862
2005-04-06 10:39:37 51°12.287 2°48.151 8.4184 3.375827 31.820185 18.298272
2005-04-06 10:40:37 51°12.421 2°48.499 8.4008 3.362555 31.691168 17.388118
2005-04-06 10:41:37 51°12.561 2°48.838 8.3868 3.347599 31.54678 16.140871
2005-04-06 10:42:37 51°12.7 2°49.182 8.3647 3.337699 31.453724 17.455537
2005-04-06 10:43:37 51°12.83 2°49.535 8.35 3.326113 31.353398 17.084734
2005-04-06 10:44:37 51°12.957 2°49.893 8.3381 3.312 31.224381 17.219571
2005-04-06 10:45:37 51°13.087 2°50.249 8.3318 3.301258 31.119504 16.17458
2005-04-06 10:46:37 51°13.216 2°50.606 8.3393 3.294096 31.043973 17.354409
2005-04-06 10:47:37 51°13.341 2°50.961 8.3221 3.285776 30.960762 17.253281
2005-04-06 10:48:37 51°13.471 2°51.325 8.3456 3.279457 30.896991 18.534238
2005-04-06 10:49:37 51°13.599 2°51.682 8.3176 3.256604 30.656421 17.354409
2005-04-06 10:50:37 51°13.73 2°52.04 8.3053 3.265766 30.76721 16.511674
2005-04-06 10:51:37 51°13.861 2°52.405 8.2967 3.255762 30.675145 18.197144
2005-04-06 10:52:37 51°13.99 2°52.765 8.2928 3.247864 30.592743 18.601657
2005-04-06 10:53:37 51°14.121 2°53.131 8.2863 3.244388 30.565882 18.163435
2005-04-06 10:54:37 51°14.241 2°53.499 8.3082 3.247442 30.589794 18.466819
2005-04-06 10:55:37 51°14.349 2°53.864 8.2962 3.238386 30.494622 18.062306
2005-04-06 10:56:37 51°14.455 2°54.236 8.3262 3.225117 30.361336 19.107298
2005-04-06 10:57:37 51°14.473 2°54.597 8.3402 3.22796 30.360133 17.826341
2005-04-06 10:58:37 51°14.414 2°54.903 8.3426 3.21227 30.197525 19.073589
2005-04-06 10:59:37 51°14.337 2°55.114 8.4015 3.21448 30.182794 19.478101
2005-04-06 11:00:37 51°14.246 2°55.285 8.4004 3.175835 29.759061 18.028597
2005-04-06 11:01:37 51°14.15 2°55.399 8.4945 3.099288 28.9492 15.534101
2005-04-06 11:02:37 51°14.057 2°55.471 8.5388 3.062861 28.511776 12.837349
2005-04-06 11:03:37 51°13.967 2°55.539 8.6515 3.042858 28.247206 11.320426
2005-04-06 11:04:37 51°13.875 2°55.606 8.6282 3.012118 27.86057 10.781076
2005-04-06 11:05:37 51°13.783 2°55.679 8.696 3.030225 28.092087 11.792358
2005-04-06 11:06:36 51°13.712 2°55.788 8.9648 3.018961 27.95263 -0.275608
2005-04-06 11:07:37 51°13.663 2°55.898 9.0391 3.019277 27.955206 -0.781249
2005-04-06 11:08:37 51°13.626 2°55.991 9.1115 3.019592 27.951906 -0.814958
2005-04-06 11:09:37 51°13.606 2°56.07 9.2083 3.020013 27.950337 -0.814958
2005-04-06 11:10:37 51°13.596 2°56.1 9.3833 3.020539 27.947235 -0.848668
2005-04-06 11:11:37 51°13.597 2°56.101 9.438 3.021066 27.949351 -0.848668
2005-04-06 11:12:38 51°13.595 2°56.105 9.4733 3.021803 27.952313 -0.814958